Upton, Texas
Current Conditions -  °F | °C
As of 9:35 PM on Friday 19 Dec 2014 (Local Time) from KGYB Reporting Station
Overcast Overcast  
Wind Chill: 45°   Ceiling: 1000
Heat Index: 49°   Visibility: 10mi
Dew Point: 46°   Wind: 12mph
Humidity: 88%   Direction: 20°NNE
Pressure: 30.2"   Gusts: NA
Location:  30.0743°N, 97.1141°W
Report Text: KGYB 200335Z AUTO 02010KT 10SM OVC010 10/08 A3020 RMK AO2 T00960077
Loading
Personal Weather Stations






























Interactive Weather Map New forecast layout! Learn more

10-Day Weather Forecast

Advertisements
Track Severe Weather on mobile